createdAt,value
2022-10-30T00:00:23.536Z,16.77
2022-10-30T00:05:24.995Z,16.84
2022-10-30T00:10:26.531Z,16.61
2022-10-30T00:15:28.022Z,16.74
2022-10-30T00:20:29.544Z,16.79
2022-10-30T00:25:30.973Z,16.80
2022-10-30T00:30:34.294Z,16.67
2022-10-30T00:35:35.730Z,16.81
2022-10-30T00:40:37.283Z,16.53
2022-10-30T00:45:38.708Z,16.59
2022-10-30T00:50:40.366Z,16.55
2022-10-30T00:56:04.828Z,16.51
2022-10-30T01:01:11.597Z,16.65
2022-10-30T01:06:16.239Z,16.43
2022-10-30T01:11:17.754Z,16.51
2022-10-30T01:16:40.345Z,16.74
2022-10-30T01:22:26.447Z,16.52
2022-10-30T01:27:39.617Z,16.14
2022-10-30T01:33:04.038Z,16.23
2022-10-30T01:38:23.308Z,16.11
2022-10-30T01:43:27.454Z,16.07
2022-10-30T01:49:09.734Z,16.24
2022-10-30T01:54:35.949Z,16.41
2022-10-30T01:59:37.322Z,16.13
2022-10-30T02:04:41.480Z,16.00
2022-10-30T02:09:43.861Z,15.89
2022-10-30T02:14:51.553Z,15.89
2022-10-30T02:19:53.000Z,15.83
2022-10-30T02:24:54.420Z,15.80
2022-10-30T02:30:00.155Z,15.79
2022-10-30T02:35:03.004Z,15.61
2022-10-30T02:40:05.655Z,15.41
2022-10-30T02:45:07.725Z,15.36
2022-10-30T02:50:09.717Z,15.38
2022-10-30T02:55:12.413Z,15.30
2022-10-30T03:00:15.562Z,15.38
2022-10-30T03:05:17.282Z,15.25
2022-10-30T03:10:18.818Z,15.21
2022-10-30T03:15:20.419Z,15.04
2022-10-30T03:20:21.996Z,15.07
2022-10-30T03:25:23.862Z,15.07
2022-10-30T03:30:28.927Z,15.00
2022-10-30T03:35:36.581Z,14.92
2022-10-30T03:40:39.745Z,14.88
2022-10-30T03:45:46.714Z,14.83
2022-10-30T03:50:48.589Z,14.68
2022-10-30T03:55:50.656Z,14.64
2022-10-30T04:00:52.808Z,14.75
2022-10-30T04:05:54.424Z,14.61
2022-10-30T04:10:56.149Z,14.59
2022-10-30T04:15:58.487Z,14.60
2022-10-30T04:21:01.019Z,14.51
2022-10-30T04:26:02.641Z,14.43
2022-10-30T04:31:04.400Z,14.41
2022-10-30T04:36:07.844Z,14.35
2022-10-30T04:41:09.370Z,14.25
2022-10-30T04:46:28.971Z,14.25
2022-10-30T04:51:37.398Z,14.21
2022-10-30T04:56:40.795Z,14.03
2022-10-30T05:01:42.537Z,14.05
2022-10-30T05:06:44.237Z,14.21
2022-10-30T05:11:47.780Z,14.36
2022-10-30T05:16:49.237Z,14.18
2022-10-30T05:21:51.393Z,14.19
2022-10-30T05:26:52.989Z,14.13
2022-10-30T05:31:54.419Z,14.15
2022-10-30T05:37:25.235Z,13.92
2022-10-30T05:42:27.150Z,14.02
2022-10-30T05:47:31.074Z,14.09
2022-10-30T05:52:33.238Z,13.91
2022-10-30T05:57:35.217Z,13.68
2022-10-30T06:02:36.711Z,13.83
2022-10-30T06:07:38.234Z,13.84
2022-10-30T06:12:39.969Z,13.73
2022-10-30T06:18:10.362Z,13.46
2022-10-30T06:23:20.212Z,13.66
2022-10-30T06:28:25.928Z,13.61
2022-10-30T06:33:27.503Z,13.74
2022-10-30T06:38:29.813Z,13.73
2022-10-30T06:43:31.583Z,13.83
2022-10-30T06:48:37.879Z,13.64
2022-10-30T06:53:39.269Z,13.74
2022-10-30T06:59:00.649Z,13.74
2022-10-30T07:04:18.348Z,13.85
2022-10-30T07:09:19.861Z,13.93
2022-10-30T07:14:22.497Z,13.98
2022-10-30T07:19:29.449Z,14.03
2022-10-30T07:24:32.116Z,14.16
2022-10-30T07:29:59.520Z,14.17
2022-10-30T07:35:10.128Z,13.94
2022-10-30T07:40:28.232Z,14.43
2022-10-30T07:45:53.402Z,14.45
2022-10-30T07:51:00.882Z,14.53
2022-10-30T07:56:02.421Z,14.74
2022-10-30T08:01:36.340Z,14.91
2022-10-30T08:06:53.708Z,14.94
2022-10-30T08:11:55.302Z,15.20
2022-10-30T08:16:57.194Z,15.37
2022-10-30T08:22:00.178Z,15.40
2022-10-30T08:27:02.588Z,15.56
2022-10-30T08:32:05.435Z,15.62
2022-10-30T08:37:25.289Z,15.71
2022-10-30T08:42:27.576Z,15.86
2022-10-30T08:47:31.875Z,15.99
2022-10-30T08:52:33.368Z,16.30
2022-10-30T08:57:37.038Z,16.55
2022-10-30T09:02:41.241Z,16.70
2022-10-30T09:08:02.210Z,16.73
2022-10-30T09:13:22.651Z,16.79
2022-10-30T09:18:24.157Z,16.89
2022-10-30T09:23:25.711Z,17.11
2022-10-30T09:28:37.346Z,17.24
2022-10-30T09:33:57.049Z,17.43
2022-10-30T09:39:34.069Z,17.57
2022-10-30T09:45:23.068Z,17.71
2022-10-30T09:50:34.525Z,17.88
2022-10-30T09:56:05.026Z,18.03
2022-10-30T10:01:15.696Z,18.12
2022-10-30T10:06:27.124Z,18.12
2022-10-30T10:11:45.638Z,18.19
2022-10-30T10:16:52.160Z,18.34
2022-10-30T10:22:02.373Z,18.50
2022-10-30T10:27:25.300Z,18.68
2022-10-30T10:32:41.660Z,18.86
2022-10-30T10:37:53.055Z,18.82
2022-10-30T10:43:18.816Z,19.17
2022-10-30T10:48:39.667Z,19.33
2022-10-30T10:53:48.310Z,19.40
2022-10-30T10:58:56.644Z,19.47
2022-10-30T11:04:04.033Z,19.72
2022-10-30T11:09:19.391Z,19.92
2022-10-30T11:14:23.475Z,20.00
2022-10-30T11:19:25.469Z,20.16
2022-10-30T11:24:32.417Z,20.18
2022-10-30T11:29:33.843Z,20.29
2022-10-30T11:34:37.049Z,20.29
2022-10-30T11:39:38.480Z,20.25
2022-10-30T11:44:45.855Z,20.39
2022-10-30T11:49:51.719Z,20.57
2022-10-30T11:54:58.401Z,20.52
2022-10-30T12:00:05.017Z,20.36
2022-10-30T12:05:43.586Z,20.60
2022-10-30T12:10:52.600Z,20.60
2022-10-30T12:16:14.465Z,20.73
2022-10-30T12:21:19.162Z,20.71
2022-10-30T12:26:22.893Z,20.77
2022-10-30T12:31:57.598Z,20.93
2022-10-30T12:37:07.708Z,20.97
2022-10-30T12:42:14.679Z,21.07
2022-10-30T12:47:21.991Z,21.04
2022-10-30T12:52:31.590Z,21.05
2022-10-30T12:57:41.359Z,20.97
2022-10-30T13:02:49.110Z,20.92
2022-10-30T13:08:00.701Z,20.81
2022-10-30T13:13:11.816Z,20.95
2022-10-30T13:18:22.392Z,21.06
2022-10-30T13:23:42.679Z,21.11
2022-10-30T13:28:59.085Z,21.04
2022-10-30T13:34:04.013Z,21.23
2022-10-30T13:39:19.679Z,21.29
2022-10-30T13:45:01.680Z,21.33
2022-10-30T13:50:21.056Z,21.37
2022-10-30T13:55:24.245Z,21.31
2022-10-30T14:01:05.841Z,21.34
2022-10-30T14:06:25.417Z,21.36
2022-10-30T14:11:26.762Z,21.36
2022-10-30T14:16:40.579Z,21.62
2022-10-30T14:21:55.388Z,21.51
2022-10-30T14:27:02.584Z,21.25
2022-10-30T14:32:16.040Z,21.15
2022-10-30T14:37:38.513Z,21.18
2022-10-30T14:42:47.445Z,21.07
2022-10-30T14:48:16.845Z,21.01
2022-10-30T14:53:41.387Z,20.89
2022-10-30T14:58:43.594Z,20.73
2022-10-30T15:04:00.683Z,20.68
2022-10-30T15:09:32.019Z,20.61
2022-10-30T15:14:52.633Z,20.48
2022-10-30T15:19:55.864Z,20.47
2022-10-30T15:24:58.427Z,20.46
2022-10-30T15:30:01.542Z,20.46
2022-10-30T15:35:05.070Z,20.34
2022-10-30T15:40:20.059Z,20.27
2022-10-30T15:45:30.393Z,20.05
2022-10-30T15:50:33.715Z,19.95
2022-10-30T15:55:35.668Z,19.80
2022-10-30T16:00:38.082Z,19.76
2022-10-30T16:05:39.753Z,19.69
2022-10-30T16:10:44.013Z,19.61
2022-10-30T16:15:47.331Z,19.58
2022-10-30T16:20:57.174Z,19.44
2022-10-30T16:25:59.554Z,19.37
2022-10-30T16:31:06.940Z,19.27
2022-10-30T16:36:14.838Z,19.22
2022-10-30T16:41:21.397Z,19.19
2022-10-30T16:46:37.845Z,19.16
2022-10-30T16:51:40.290Z,18.96
2022-10-30T16:56:48.914Z,18.94
2022-10-30T17:02:00.709Z,19.00
2022-10-30T17:07:14.530Z,18.99
2022-10-30T17:12:26.999Z,18.97
2022-10-30T17:17:34.942Z,19.00
2022-10-30T17:22:36.519Z,19.05
2022-10-30T17:27:46.768Z,19.03
2022-10-30T17:32:54.010Z,19.05
2022-10-30T17:37:58.477Z,18.94
2022-10-30T17:43:03.182Z,18.84
2022-10-30T17:48:12.023Z,18.70
2022-10-30T17:53:21.478Z,18.71
2022-10-30T17:58:22.772Z,18.60
2022-10-30T18:03:24.190Z,18.47
2022-10-30T18:08:25.766Z,18.42
2022-10-30T18:13:27.155Z,18.40
2022-10-30T18:18:28.570Z,18.34
2022-10-30T18:23:51.243Z,18.32
2022-10-30T18:28:52.031Z,18.40
2022-10-30T18:33:53.601Z,18.29
2022-10-30T18:38:56.063Z,18.30
2022-10-30T18:43:57.756Z,18.26
2022-10-30T18:48:59.225Z,18.19
2022-10-30T18:54:00.716Z,18.18
2022-10-30T18:59:02.718Z,18.21
2022-10-30T19:04:09.301Z,18.22
2022-10-30T19:09:10.759Z,18.07
2022-10-30T19:14:13.638Z,17.93
2022-10-30T19:19:15.236Z,17.96
2022-10-30T19:24:17.683Z,17.92
2022-10-30T19:29:19.078Z,17.99
2022-10-30T19:34:20.498Z,17.99
2022-10-30T19:39:21.890Z,17.85
2022-10-30T19:44:23.324Z,17.84
2022-10-30T19:49:24.754Z,17.86
2022-10-30T19:54:26.163Z,17.77
2022-10-30T19:59:27.563Z,17.64
2022-10-30T20:04:28.975Z,17.63
2022-10-30T20:09:31.017Z,17.52
2022-10-30T20:14:32.409Z,17.42
2022-10-30T20:19:33.806Z,17.31
2022-10-30T20:24:35.294Z,17.36
2022-10-30T20:29:39.883Z,17.30
2022-10-30T20:34:41.271Z,17.25
2022-10-30T20:39:42.724Z,17.24
2022-10-30T20:44:44.109Z,17.13
2022-10-30T20:49:45.700Z,17.19
2022-10-30T20:54:47.204Z,17.08
2022-10-30T20:59:48.680Z,16.93
2022-10-30T21:04:50.273Z,16.78
2022-10-30T21:09:51.811Z,16.79
2022-10-30T21:14:54.333Z,16.76
2022-10-30T21:19:55.766Z,16.60
2022-10-30T21:24:57.158Z,16.57
2022-10-30T21:29:58.559Z,16.68
2022-10-30T21:35:00.002Z,16.72
2022-10-30T21:40:01.824Z,16.81
2022-10-30T21:45:03.794Z,16.75
2022-10-30T21:50:07.660Z,16.92
2022-10-30T21:55:10.762Z,16.92
2022-10-30T22:00:12.859Z,16.96
2022-10-30T22:05:14.308Z,17.05
2022-10-30T22:10:15.766Z,17.04
2022-10-30T22:15:17.274Z,17.07
2022-10-30T22:20:18.745Z,17.14
2022-10-30T22:25:20.481Z,17.24
2022-10-30T22:30:21.899Z,17.21
2022-10-30T22:35:23.378Z,17.15
2022-10-30T22:40:24.832Z,17.21
2022-10-30T22:45:26.441Z,17.11
2022-10-30T22:50:27.830Z,17.13
2022-10-30T22:55:29.229Z,17.06
2022-10-30T23:00:30.624Z,17.06
2022-10-30T23:05:31.998Z,17.03
2022-10-30T23:10:33.389Z,17.11
2022-10-30T23:15:38.513Z,16.98
2022-10-30T23:20:42.111Z,16.92
2022-10-30T23:25:43.556Z,16.82
2022-10-30T23:30:45.148Z,16.90
2022-10-30T23:35:46.557Z,16.83
2022-10-30T23:40:47.991Z,16.73
2022-10-30T23:45:49.452Z,16.70
2022-10-30T23:50:51.222Z,16.57
2022-10-30T23:55:53.505Z,16.46
